sensor_id;sensor_type;location;lat;lon;timestamp;P1;durP1;ratioP1;P2;durP2;ratioP2
60068;SDS011;45945;53.350;55.922;2022-08-03T00:00:56;12.50;;;7.97;;
60068;SDS011;45945;53.350;55.922;2022-08-03T00:02:15;13.65;;;8.82;;
60068;SDS011;45945;53.350;55.922;2022-08-03T00:03:35;14.23;;;9.07;;
60068;SDS011;45945;53.350;55.922;2022-08-03T00:04:54;13.57;;;8.95;;
60068;SDS011;45945;53.350;55.922;2022-08-03T00:06:13;17.70;;;8.98;;
60068;SDS011;45945;53.350;55.922;2022-08-03T00:07:33;12.65;;;8.25;;
60068;SDS011;45945;53.350;55.922;2022-08-03T00:08:53;14.68;;;8.73;;
60068;SDS011;45945;53.350;55.922;2022-08-03T00:10:12;15.32;;;9.02;;
60068;SDS011;45945;53.350;55.922;2022-08-03T00:11:32;13.45;;;8.73;;
60068;SDS011;45945;53.350;55.922;2022-08-03T00:12:52;14.40;;;8.43;;
60068;SDS011;45945;53.350;55.922;2022-08-03T00:15:31;14.63;;;8.55;;
60068;SDS011;45945;53.350;55.922;2022-08-03T00:16:50;14.23;;;9.38;;
60068;SDS011;45945;53.350;55.922;2022-08-03T00:18:09;16.25;;;9.40;;
60068;SDS011;45945;53.350;55.922;2022-08-03T00:19:29;14.40;;;9.20;;
60068;SDS011;45945;53.350;55.922;2022-08-03T00:20:48;15.73;;;10.13;;
60068;SDS011;45945;53.350;55.922;2022-08-03T00:22:08;14.30;;;9.43;;
60068;SDS011;45945;53.350;55.922;2022-08-03T00:23:27;14.75;;;9.52;;
60068;SDS011;45945;53.350;55.922;2022-08-03T00:24:47;12.65;;;8.45;;
60068;SDS011;45945;53.350;55.922;2022-08-03T00:26:06;14.15;;;9.18;;
60068;SDS011;45945;53.350;55.922;2022-08-03T00:27:26;14.27;;;10.00;;
60068;SDS011;45945;53.350;55.922;2022-08-03T00:30:05;13.32;;;9.18;;
60068;SDS011;45945;53.350;55.922;2022-08-03T00:31:25;15.15;;;9.95;;
60068;SDS011;45945;53.350;55.922;2022-08-03T00:32:45;14.38;;;9.85;;
60068;SDS011;45945;53.350;55.922;2022-08-03T00:34:04;14.95;;;9.80;;
60068;SDS011;45945;53.350;55.922;2022-08-03T00:35:24;15.18;;;9.25;;
60068;SDS011;45945;53.350;55.922;2022-08-03T00:36:43;15.15;;;8.85;;
60068;SDS011;45945;53.350;55.922;2022-08-03T00:38:03;14.85;;;9.27;;
60068;SDS011;45945;53.350;55.922;2022-08-03T00:39:23;13.82;;;9.35;;
60068;SDS011;45945;53.350;55.922;2022-08-03T00:40:42;15.10;;;9.52;;
60068;SDS011;45945;53.350;55.922;2022-08-03T00:42:02;15.57;;;10.05;;
60068;SDS011;45945;53.350;55.922;2022-08-03T00:43:24;16.10;;;9.30;;
60068;SDS011;45945;53.350;55.922;2022-08-03T00:44:46;13.85;;;9.52;;
60068;SDS011;45945;53.350;55.922;2022-08-03T00:46:06;14.98;;;10.43;;
60068;SDS011;45945;53.350;55.922;2022-08-03T00:47:25;15.10;;;8.90;;
60068;SDS011;45945;53.350;55.922;2022-08-03T00:48:44;13.20;;;9.30;;
60068;SDS011;45945;53.350;55.922;2022-08-03T00:50:04;12.65;;;9.27;;
60068;SDS011;45945;53.350;55.922;2022-08-03T00:51:24;15.32;;;9.43;;
60068;SDS011;45945;53.350;55.922;2022-08-03T00:52:46;14.38;;;9.20;;
60068;SDS011;45945;53.350;55.922;2022-08-03T00:54:05;17.13;;;10.13;;
60068;SDS011;45945;53.350;55.922;2022-08-03T00:55:25;13.63;;;9.35;;
60068;SDS011;45945;53.350;55.922;2022-08-03T00:56:44;13.63;;;9.50;;
60068;SDS011;45945;53.350;55.922;2022-08-03T00:58:04;13.68;;;9.57;;
60068;SDS011;45945;53.350;55.922;2022-08-03T00:59:24;15.30;;;9.50;;
60068;SDS011;45945;53.350;55.922;2022-08-03T01:00:44;14.35;;;10.07;;
60068;SDS011;45945;53.350;55.922;2022-08-03T01:02:04;13.80;;;9.30;;
60068;SDS011;45945;53.350;55.922;2022-08-03T01:03:24;13.63;;;9.52;;
60068;SDS011;45945;53.350;55.922;2022-08-03T01:04:43;16.33;;;9.88;;
60068;SDS011;45945;53.350;55.922;2022-08-03T01:11:38;17.73;;;9.85;;
60068;SDS011;45945;53.350;55.922;2022-08-03T01:14:50;15.07;;;9.85;;
60068;SDS011;45945;53.350;55.922;2022-08-03T01:16:19;14.93;;;9.57;;
60068;SDS011;45945;53.350;55.922;2022-08-03T01:18:10;17.85;;;10.57;;
60068;SDS011;45945;53.350;55.922;2022-08-03T01:19:47;13.35;;;9.00;;
60068;SDS011;45945;53.350;55.922;2022-08-03T01:21:13;14.82;;;9.65;;
60068;SDS011;45945;53.350;55.922;2022-08-03T01:22:51;16.27;;;9.35;;
60068;SDS011;45945;53.350;55.922;2022-08-03T01:24:55;15.50;;;9.60;;
60068;SDS011;45945;53.350;55.922;2022-08-03T01:26:59;13.70;;;9.43;;
60068;SDS011;45945;53.350;55.922;2022-08-03T01:28:38;15.18;;;9.77;;
60068;SDS011;45945;53.350;55.922;2022-08-03T01:30:13;13.70;;;10.02;;
60068;SDS011;45945;53.350;55.922;2022-08-03T01:31:37;14.93;;;9.98;;
60068;SDS011;45945;53.350;55.922;2022-08-03T01:33:03;15.88;;;9.73;;
60068;SDS011;45945;53.350;55.922;2022-08-03T01:34:30;16.75;;;10.15;;
60068;SDS011;45945;53.350;55.922;2022-08-03T01:35:58;43.45;;;32.38;;
60068;SDS011;45945;53.350;55.922;2022-08-03T01:37:23;28.75;;;20.17;;
60068;SDS011;45945;53.350;55.922;2022-08-03T01:38:47;17.42;;;10.82;;
60068;SDS011;45945;53.350;55.922;2022-08-03T01:40:10;19.58;;;11.90;;
60068;SDS011;45945;53.350;55.922;2022-08-03T01:41:32;21.48;;;12.45;;
60068;SDS011;45945;53.350;55.922;2022-08-03T01:43:02;17.88;;;11.35;;
60068;SDS011;45945;53.350;55.922;2022-08-03T01:44:25;15.65;;;11.45;;
60068;SDS011;45945;53.350;55.922;2022-08-03T01:45:49;20.13;;;11.70;;
60068;SDS011;45945;53.350;55.922;2022-08-03T01:47:09;17.33;;;12.40;;
60068;SDS011;45945;53.350;55.922;2022-08-03T01:48:30;18.85;;;12.10;;
60068;SDS011;45945;53.350;55.922;2022-08-03T01:49:50;18.42;;;12.13;;
60068;SDS011;45945;53.350;55.922;2022-08-03T01:51:13;16.80;;;11.65;;
60068;SDS011;45945;53.350;55.922;2022-08-03T01:52:36;18.98;;;11.25;;
60068;SDS011;45945;53.350;55.922;2022-08-03T01:53:58;16.98;;;11.07;;
60068;SDS011;45945;53.350;55.922;2022-08-03T01:55:18;16.35;;;11.20;;
60068;SDS011;45945;53.350;55.922;2022-08-03T01:56:40;18.90;;;11.65;;
60068;SDS011;45945;53.350;55.922;2022-08-03T01:58:01;18.60;;;11.57;;
60068;SDS011;45945;53.350;55.922;2022-08-03T01:59:23;18.50;;;12.10;;
60068;SDS011;45945;53.350;55.922;2022-08-03T02:00:44;17.17;;;11.70;;
60068;SDS011;45945;53.350;55.922;2022-08-03T02:02:06;80.22;;;52.70;;
60068;SDS011;45945;53.350;55.922;2022-08-03T02:03:28;26.17;;;17.67;;
60068;SDS011;45945;53.350;55.922;2022-08-03T02:04:49;19.38;;;13.57;;
60068;SDS011;45945;53.350;55.922;2022-08-03T02:06:11;25.55;;;16.33;;
60068;SDS011;45945;53.350;55.922;2022-08-03T02:07:32;16.40;;;11.98;;
60068;SDS011;45945;53.350;55.922;2022-08-03T02:08:52;15.90;;;11.15;;
60068;SDS011;45945;53.350;55.922;2022-08-03T02:10:14;16.75;;;11.50;;
60068;SDS011;45945;53.350;55.922;2022-08-03T02:11:38;17.58;;;11.85;;
60068;SDS011;45945;53.350;55.922;2022-08-03T02:12:58;18.08;;;11.00;;
60068;SDS011;45945;53.350;55.922;2022-08-03T02:14:20;16.95;;;10.63;;
60068;SDS011;45945;53.350;55.922;2022-08-03T02:15:41;15.52;;;9.93;;
60068;SDS011;45945;53.350;55.922;2022-08-03T02:17:03;21.20;;;12.80;;
60068;SDS011;45945;53.350;55.922;2022-08-03T02:18:25;18.40;;;11.48;;
60068;SDS011;45945;53.350;55.922;2022-08-03T02:19:45;15.27;;;10.05;;
60068;SDS011;45945;53.350;55.922;2022-08-03T02:21:06;16.98;;;10.30;;
60068;SDS011;45945;53.350;55.922;2022-08-03T02:22:28;16.40;;;9.85;;
60068;SDS011;45945;53.350;55.922;2022-08-03T02:23:48;15.75;;;9.05;;
60068;SDS011;45945;53.350;55.922;2022-08-03T02:25:08;14.40;;;8.98;;
60068;SDS011;45945;53.350;55.922;2022-08-03T02:26:30;13.70;;;8.02;;
60068;SDS011;45945;53.350;55.922;2022-08-03T02:27:54;13.70;;;8.18;;
60068;SDS011;45945;53.350;55.922;2022-08-03T02:29:17;13.93;;;8.65;;
60068;SDS011;45945;53.350;55.922;2022-08-03T02:30:39;15.27;;;8.70;;
60068;SDS011;45945;53.350;55.922;2022-08-03T02:32:03;18.05;;;8.60;;
60068;SDS011;45945;53.350;55.922;2022-08-03T02:33:25;13.43;;;8.65;;
60068;SDS011;45945;53.350;55.922;2022-08-03T02:34:50;13.13;;;7.95;;
60068;SDS011;45945;53.350;55.922;2022-08-03T02:36:11;14.23;;;7.63;;
60068;SDS011;45945;53.350;55.922;2022-08-03T02:37:33;12.95;;;7.82;;
60068;SDS011;45945;53.350;55.922;2022-08-03T02:38:56;13.25;;;7.78;;
60068;SDS011;45945;53.350;55.922;2022-08-03T02:40:18;13.55;;;7.35;;
60068;SDS011;45945;53.350;55.922;2022-08-03T02:41:40;13.90;;;7.82;;
60068;SDS011;45945;53.350;55.922;2022-08-03T02:43:07;12.88;;;6.97;;
60068;SDS011;45945;53.350;55.922;2022-08-03T02:44:30;10.45;;;6.80;;
60068;SDS011;45945;53.350;55.922;2022-08-03T02:45:51;10.60;;;6.78;;
60068;SDS011;45945;53.350;55.922;2022-08-03T02:47:12;14.55;;;9.35;;
60068;SDS011;45945;53.350;55.922;2022-08-03T02:48:33;12.18;;;7.60;;
60068;SDS011;45945;53.350;55.922;2022-08-03T02:49:56;11.80;;;7.03;;
60068;SDS011;45945;53.350;55.922;2022-08-03T02:51:18;11.45;;;7.00;;
60068;SDS011;45945;53.350;55.922;2022-08-03T02:52:39;12.43;;;6.63;;
60068;SDS011;45945;53.350;55.922;2022-08-03T02:54:02;13.93;;;7.15;;
60068;SDS011;45945;53.350;55.922;2022-08-03T02:55:22;14.38;;;7.25;;
60068;SDS011;45945;53.350;55.922;2022-08-03T02:56:45;13.43;;;7.43;;
60068;SDS011;45945;53.350;55.922;2022-08-03T02:58:05;14.57;;;7.30;;
60068;SDS011;45945;53.350;55.922;2022-08-03T02:59:26;12.68;;;7.88;;
60068;SDS011;45945;53.350;55.922;2022-08-03T03:00:49;13.30;;;7.57;;
60068;SDS011;45945;53.350;55.922;2022-08-03T03:02:09;12.52;;;7.55;;
60068;SDS011;45945;53.350;55.922;2022-08-03T03:03:32;10.43;;;7.00;;
60068;SDS011;45945;53.350;55.922;2022-08-03T03:04:52;12.48;;;7.60;;
60068;SDS011;45945;53.350;55.922;2022-08-03T03:06:14;11.70;;;7.30;;
60068;SDS011;45945;53.350;55.922;2022-08-03T03:07:37;11.57;;;6.85;;
60068;SDS011;45945;53.350;55.922;2022-08-03T03:08:58;18.48;;;7.90;;
60068;SDS011;45945;53.350;55.922;2022-08-03T03:10:22;14.18;;;6.43;;
60068;SDS011;45945;53.350;55.922;2022-08-03T03:11:43;13.75;;;8.02;;
60068;SDS011;45945;53.350;55.922;2022-08-03T03:13:04;12.73;;;7.40;;
60068;SDS011;45945;53.350;55.922;2022-08-03T03:14:24;13.35;;;8.27;;
60068;SDS011;45945;53.350;55.922;2022-08-03T03:15:44;13.65;;;7.88;;
60068;SDS011;45945;53.350;55.922;2022-08-03T03:17:05;14.68;;;7.97;;
60068;SDS011;45945;53.350;55.922;2022-08-03T03:18:27;11.93;;;6.97;;
60068;SDS011;45945;53.350;55.922;2022-08-03T03:19:49;13.48;;;7.88;;
60068;SDS011;45945;53.350;55.922;2022-08-03T03:21:10;14.50;;;7.03;;
60068;SDS011;45945;53.350;55.922;2022-08-03T03:22:32;12.65;;;6.93;;
60068;SDS011;45945;53.350;55.922;2022-08-03T03:23:53;9.55;;;6.82;;
60068;SDS011;45945;53.350;55.922;2022-08-03T03:25:13;11.32;;;7.00;;
60068;SDS011;45945;53.350;55.922;2022-08-03T03:26:32;12.82;;;6.35;;
60068;SDS011;45945;53.350;55.922;2022-08-03T03:27:53;10.77;;;6.07;;
60068;SDS011;45945;53.350;55.922;2022-08-03T03:29:14;12.77;;;6.50;;
60068;SDS011;45945;53.350;55.922;2022-08-03T03:30:33;9.95;;;5.18;;
60068;SDS011;45945;53.350;55.922;2022-08-03T03:31:53;9.60;;;4.38;;
60068;SDS011;45945;53.350;55.922;2022-08-03T03:33:13;9.65;;;4.30;;
60068;SDS011;45945;53.350;55.922;2022-08-03T03:34:32;9.27;;;4.82;;
60068;SDS011;45945;53.350;55.922;2022-08-03T03:35:52;10.90;;;4.93;;
60068;SDS011;45945;53.350;55.922;2022-08-03T03:38:31;9.57;;;4.35;;
60068;SDS011;45945;53.350;55.922;2022-08-03T03:39:52;9.27;;;4.97;;
60068;SDS011;45945;53.350;55.922;2022-08-03T03:41:12;11.30;;;5.10;;
60068;SDS011;45945;53.350;55.922;2022-08-03T03:42:31;8.73;;;4.93;;
60068;SDS011;45945;53.350;55.922;2022-08-03T03:43:51;9.18;;;5.10;;
60068;SDS011;45945;53.350;55.922;2022-08-03T03:45:11;8.20;;;4.65;;
60068;SDS011;45945;53.350;55.922;2022-08-03T03:46:31;9.77;;;5.55;;
60068;SDS011;45945;53.350;55.922;2022-08-03T03:47:51;10.75;;;4.75;;
60068;SDS011;45945;53.350;55.922;2022-08-03T03:49:11;8.63;;;4.60;;
60068;SDS011;45945;53.350;55.922;2022-08-03T03:50:31;8.43;;;4.15;;
60068;SDS011;45945;53.350;55.922;2022-08-03T03:51:54;9.30;;;4.00;;
60068;SDS011;45945;53.350;55.922;2022-08-03T03:53:13;9.55;;;3.85;;
60068;SDS011;45945;53.350;55.922;2022-08-03T03:54:42;9.38;;;3.63;;
60068;SDS011;45945;53.350;55.922;2022-08-03T03:56:03;6.90;;;3.53;;
60068;SDS011;45945;53.350;55.922;2022-08-03T03:57:22;7.75;;;3.53;;
60068;SDS011;45945;53.350;55.922;2022-08-03T03:58:41;7.95;;;3.65;;
60068;SDS011;45945;53.350;55.922;2022-08-03T04:00:01;8.23;;;3.63;;
60068;SDS011;45945;53.350;55.922;2022-08-03T04:01:24;7.45;;;4.90;;
60068;SDS011;45945;53.350;55.922;2022-08-03T04:02:44;6.80;;;3.28;;
60068;SDS011;45945;53.350;55.922;2022-08-03T04:04:04;7.25;;;3.88;;
60068;SDS011;45945;53.350;55.922;2022-08-03T04:05:42;7.63;;;3.67;;
60068;SDS011;45945;53.350;55.922;2022-08-03T04:07:20;8.85;;;4.18;;
60068;SDS011;45945;53.350;55.922;2022-08-03T04:09:00;10.10;;;3.72;;
60068;SDS011;45945;53.350;55.922;2022-08-03T04:10:38;7.30;;;3.50;;
60068;SDS011;45945;53.350;55.922;2022-08-03T04:12:16;7.78;;;3.75;;
60068;SDS011;45945;53.350;55.922;2022-08-03T04:15:24;8.98;;;3.17;;
60068;SDS011;45945;53.350;55.922;2022-08-03T04:16:51;6.38;;;3.10;;
60068;SDS011;45945;53.350;55.922;2022-08-03T04:18:13;7.93;;;3.70;;
60068;SDS011;45945;53.350;55.922;2022-08-03T04:19:39;7.13;;;2.85;;
60068;SDS011;45945;53.350;55.922;2022-08-03T04:21:04;6.50;;;3.53;;
60068;SDS011;45945;53.350;55.922;2022-08-03T04:22:28;7.35;;;3.30;;
60068;SDS011;45945;53.350;55.922;2022-08-03T04:23:51;5.53;;;3.00;;
60068;SDS011;45945;53.350;55.922;2022-08-03T04:25:14;6.38;;;3.08;;
60068;SDS011;45945;53.350;55.922;2022-08-03T04:26:38;5.80;;;2.72;;
60068;SDS011;45945;53.350;55.922;2022-08-03T04:27:59;7.60;;;3.38;;
60068;SDS011;45945;53.350;55.922;2022-08-03T04:29:19;7.35;;;3.40;;
60068;SDS011;45945;53.350;55.922;2022-08-03T04:30:40;7.78;;;4.85;;
60068;SDS011;45945;53.350;55.922;2022-08-03T04:32:06;6.80;;;4.20;;
60068;SDS011;45945;53.350;55.922;2022-08-03T04:33:27;6.05;;;2.60;;
60068;SDS011;45945;53.350;55.922;2022-08-03T04:34:49;7.00;;;2.80;;
60068;SDS011;45945;53.350;55.922;2022-08-03T04:36:10;5.88;;;3.05;;
60068;SDS011;45945;53.350;55.922;2022-08-03T04:37:38;8.55;;;3.40;;
60068;SDS011;45945;53.350;55.922;2022-08-03T04:39:02;6.03;;;3.53;;
60068;SDS011;45945;53.350;55.922;2022-08-03T04:40:26;6.07;;;2.78;;
60068;SDS011;45945;53.350;55.922;2022-08-03T04:41:49;5.95;;;2.80;;
60068;SDS011;45945;53.350;55.922;2022-08-03T04:43:12;7.15;;;3.38;;
60068;SDS011;45945;53.350;55.922;2022-08-03T04:44:35;6.50;;;3.28;;
60068;SDS011;45945;53.350;55.922;2022-08-03T04:45:58;7.55;;;2.88;;
60068;SDS011;45945;53.350;55.922;2022-08-03T04:47:19;5.13;;;2.60;;
60068;SDS011;45945;53.350;55.922;2022-08-03T04:48:38;5.57;;;2.83;;
60068;SDS011;45945;53.350;55.922;2022-08-03T04:50:02;5.38;;;2.90;;
60068;SDS011;45945;53.350;55.922;2022-08-03T04:51:26;6.10;;;3.00;;
60068;SDS011;45945;53.350;55.922;2022-08-03T04:52:47;6.53;;;2.97;;
60068;SDS011;45945;53.350;55.922;2022-08-03T04:54:10;6.60;;;3.15;;
60068;SDS011;45945;53.350;55.922;2022-08-03T04:55:34;6.53;;;3.10;;
60068;SDS011;45945;53.350;55.922;2022-08-03T04:56:54;6.80;;;3.33;;
60068;SDS011;45945;53.350;55.922;2022-08-03T04:58:14;8.32;;;3.22;;
60068;SDS011;45945;53.350;55.922;2022-08-03T04:59:33;6.90;;;3.10;;
60068;SDS011;45945;53.350;55.922;2022-08-03T05:00:56;7.93;;;2.97;;
60068;SDS011;45945;53.350;55.922;2022-08-03T05:02:15;6.10;;;2.85;;
60068;SDS011;45945;53.350;55.922;2022-08-03T05:03:35;8.02;;;3.05;;
60068;SDS011;45945;53.350;55.922;2022-08-03T05:06:13;5.75;;;2.90;;
60068;SDS011;45945;53.350;55.922;2022-08-03T05:07:33;6.85;;;2.60;;
60068;SDS011;45945;53.350;55.922;2022-08-03T05:08:53;5.97;;;2.60;;
60068;SDS011;45945;53.350;55.922;2022-08-03T05:10:14;5.85;;;2.35;;
60068;SDS011;45945;53.350;55.922;2022-08-03T05:11:33;5.28;;;2.50;;
60068;SDS011;45945;53.350;55.922;2022-08-03T05:12:53;7.20;;;2.72;;
60068;SDS011;45945;53.350;55.922;2022-08-03T05:14:12;4.88;;;2.40;;
60068;SDS011;45945;53.350;55.922;2022-08-03T05:15:31;6.43;;;2.40;;
60068;SDS011;45945;53.350;55.922;2022-08-03T05:16:50;6.95;;;2.53;;
60068;SDS011;45945;53.350;55.922;2022-08-03T05:18:10;5.32;;;2.45;;
60068;SDS011;45945;53.350;55.922;2022-08-03T05:19:29;6.25;;;2.55;;
60068;SDS011;45945;53.350;55.922;2022-08-03T05:20:48;5.78;;;2.70;;
60068;SDS011;45945;53.350;55.922;2022-08-03T05:22:08;6.68;;;2.92;;
60068;SDS011;45945;53.350;55.922;2022-08-03T05:23:28;7.07;;;2.60;;
60068;SDS011;45945;53.350;55.922;2022-08-03T05:24:47;8.57;;;2.80;;
60068;SDS011;45945;53.350;55.922;2022-08-03T05:26:07;5.82;;;2.25;;
60068;SDS011;45945;53.350;55.922;2022-08-03T05:27:26;7.78;;;2.67;;
60068;SDS011;45945;53.350;55.922;2022-08-03T05:28:46;5.22;;;2.38;;
60068;SDS011;45945;53.350;55.922;2022-08-03T05:30:05;8.82;;;3.00;;
60068;SDS011;45945;53.350;55.922;2022-08-03T05:31:25;5.47;;;2.67;;
60068;SDS011;45945;53.350;55.922;2022-08-03T05:32:44;7.13;;;2.40;;
60068;SDS011;45945;53.350;55.922;2022-08-03T05:34:04;6.20;;;2.50;;
60068;SDS011;45945;53.350;55.922;2022-08-03T05:35:23;5.15;;;2.50;;
60068;SDS011;45945;53.350;55.922;2022-08-03T05:36:43;6.90;;;2.60;;
60068;SDS011;45945;53.350;55.922;2022-08-03T05:38:02;6.22;;;2.40;;
60068;SDS011;45945;53.350;55.922;2022-08-03T05:39:22;8.18;;;2.80;;
60068;SDS011;45945;53.350;55.922;2022-08-03T05:40:41;7.47;;;3.15;;
60068;SDS011;45945;53.350;55.922;2022-08-03T05:42:01;5.90;;;2.50;;
60068;SDS011;45945;53.350;55.922;2022-08-03T05:43:20;6.35;;;2.40;;
60068;SDS011;45945;53.350;55.922;2022-08-03T05:44:40;6.28;;;2.90;;
60068;SDS011;45945;53.350;55.922;2022-08-03T05:47:19;6.10;;;2.30;;
60068;SDS011;45945;53.350;55.922;2022-08-03T05:48:39;7.18;;;2.33;;
60068;SDS011;45945;53.350;55.922;2022-08-03T05:50:00;5.20;;;2.17;;
60068;SDS011;45945;53.350;55.922;2022-08-03T05:51:20;7.03;;;2.60;;
60068;SDS011;45945;53.350;55.922;2022-08-03T05:52:39;8.77;;;4.18;;
60068;SDS011;45945;53.350;55.922;2022-08-03T05:55:18;6.35;;;2.55;;
60068;SDS011;45945;53.350;55.922;2022-08-03T05:56:37;6.20;;;2.40;;
60068;SDS011;45945;53.350;55.922;2022-08-03T05:57:58;6.57;;;2.22;;
60068;SDS011;45945;53.350;55.922;2022-08-03T05:59:20;5.07;;;2.28;;
60068;SDS011;45945;53.350;55.922;2022-08-03T06:00:39;5.55;;;2.30;;
60068;SDS011;45945;53.350;55.922;2022-08-03T06:01:59;5.43;;;2.08;;
60068;SDS011;45945;53.350;55.922;2022-08-03T06:03:18;4.75;;;2.13;;
60068;SDS011;45945;53.350;55.922;2022-08-03T06:04:41;6.85;;;2.40;;
60068;SDS011;45945;53.350;55.922;2022-08-03T06:06:00;5.15;;;2.30;;
60068;SDS011;45945;53.350;55.922;2022-08-03T06:07:19;4.63;;;2.05;;
60068;SDS011;45945;53.350;55.922;2022-08-03T06:08:39;7.10;;;2.30;;
60068;SDS011;45945;53.350;55.922;2022-08-03T06:09:59;4.95;;;2.08;;
60068;SDS011;45945;53.350;55.922;2022-08-03T06:11:21;3.72;;;2.00;;
60068;SDS011;45945;53.350;55.922;2022-08-03T06:13:59;6.20;;;2.22;;
60068;SDS011;45945;53.350;55.922;2022-08-03T06:15:19;4.68;;;2.17;;
60068;SDS011;45945;53.350;55.922;2022-08-03T06:16:39;6.13;;;2.40;;
60068;SDS011;45945;53.350;55.922;2022-08-03T06:17:58;8.43;;;2.25;;
60068;SDS011;45945;53.350;55.922;2022-08-03T06:19:18;9.43;;;6.80;;
60068;SDS011;45945;53.350;55.922;2022-08-03T06:20:37;5.28;;;2.50;;
60068;SDS011;45945;53.350;55.922;2022-08-03T06:21:56;4.63;;;2.03;;
60068;SDS011;45945;53.350;55.922;2022-08-03T06:23:16;4.75;;;2.00;;
60068;SDS011;45945;53.350;55.922;2022-08-03T06:24:35;4.80;;;2.05;;
60068;SDS011;45945;53.350;55.922;2022-08-03T06:27:15;4.68;;;1.70;;
60068;SDS011;45945;53.350;55.922;2022-08-03T06:28:34;4.80;;;2.00;;
60068;SDS011;45945;53.350;55.922;2022-08-03T06:29:54;5.13;;;2.05;;
60068;SDS011;45945;53.350;55.922;2022-08-03T06:31:13;7.00;;;2.25;;
60068;SDS011;45945;53.350;55.922;2022-08-03T06:32:33;4.75;;;2.10;;
60068;SDS011;45945;53.350;55.922;2022-08-03T06:33:52;5.43;;;1.90;;
60068;SDS011;45945;53.350;55.922;2022-08-03T06:35:12;4.95;;;1.70;;
60068;SDS011;45945;53.350;55.922;2022-08-03T06:36:31;3.58;;;1.63;;
60068;SDS011;45945;53.350;55.922;2022-08-03T06:37:50;5.07;;;1.90;;
60068;SDS011;45945;53.350;55.922;2022-08-03T06:39:10;4.22;;;1.98;;
60068;SDS011;45945;53.350;55.922;2022-08-03T06:40:33;5.45;;;2.20;;
60068;SDS011;45945;53.350;55.922;2022-08-03T06:41:57;5.53;;;1.95;;
60068;SDS011;45945;53.350;55.922;2022-08-03T06:43:17;5.28;;;2.10;;
60068;SDS011;45945;53.350;55.922;2022-08-03T06:45:56;5.25;;;2.30;;
60068;SDS011;45945;53.350;55.922;2022-08-03T06:47:15;5.40;;;1.95;;
60068;SDS011;45945;53.350;55.922;2022-08-03T06:48:35;4.47;;;1.90;;
60068;SDS011;45945;53.350;55.922;2022-08-03T06:49:55;5.00;;;2.08;;
60068;SDS011;45945;53.350;55.922;2022-08-03T06:51:15;5.07;;;1.95;;
60068;SDS011;45945;53.350;55.922;2022-08-03T06:53:54;3.83;;;1.70;;
60068;SDS011;45945;53.350;55.922;2022-08-03T06:55:16;6.18;;;1.98;;
60068;SDS011;45945;53.350;55.922;2022-08-03T06:56:36;4.72;;;2.00;;
60068;SDS011;45945;53.350;55.922;2022-08-03T06:57:55;4.60;;;1.83;;
60068;SDS011;45945;53.350;55.922;2022-08-03T06:59:15;7.78;;;2.22;;
60068;SDS011;45945;53.350;55.922;2022-08-03T07:00:34;5.85;;;2.00;;
60068;SDS011;45945;53.350;55.922;2022-08-03T07:01:54;5.63;;;2.00;;
60068;SDS011;45945;53.350;55.922;2022-08-03T07:03:15;4.78;;;2.08;;
60068;SDS011;45945;53.350;55.922;2022-08-03T07:04:34;6.90;;;2.78;;
60068;SDS011;45945;53.350;55.922;2022-08-03T07:05:54;5.90;;;3.10;;
60068;SDS011;45945;53.350;55.922;2022-08-03T07:07:13;6.63;;;2.00;;
60068;SDS011;45945;53.350;55.922;2022-08-03T07:08:32;4.25;;;1.80;;
60068;SDS011;45945;53.350;55.922;2022-08-03T07:09:51;5.30;;;2.33;;
60068;SDS011;45945;53.350;55.922;2022-08-03T07:11:11;6.80;;;2.40;;
60068;SDS011;45945;53.350;55.922;2022-08-03T07:12:31;5.05;;;2.15;;
60068;SDS011;45945;53.350;55.922;2022-08-03T07:13:52;4.85;;;2.13;;
60068;SDS011;45945;53.350;55.922;2022-08-03T07:16:30;5.15;;;2.38;;
60068;SDS011;45945;53.350;55.922;2022-08-03T07:17:50;4.95;;;1.90;;
60068;SDS011;45945;53.350;55.922;2022-08-03T07:19:09;4.82;;;1.90;;
60068;SDS011;45945;53.350;55.922;2022-08-03T07:20:28;6.65;;;1.85;;
60068;SDS011;45945;53.350;55.922;2022-08-03T07:21:48;3.95;;;1.70;;
60068;SDS011;45945;53.350;55.922;2022-08-03T07:23:07;5.85;;;2.03;;
60068;SDS011;45945;53.350;55.922;2022-08-03T07:24:27;4.93;;;1.80;;
60068;SDS011;45945;53.350;55.922;2022-08-03T07:27:06;4.30;;;1.73;;
60068;SDS011;45945;53.350;55.922;2022-08-03T07:28:27;4.25;;;1.98;;
60068;SDS011;45945;53.350;55.922;2022-08-03T07:29:46;4.43;;;1.92;;
60068;SDS011;45945;53.350;55.922;2022-08-03T07:31:06;5.28;;;2.00;;
60068;SDS011;45945;53.350;55.922;2022-08-03T07:32:26;4.93;;;2.10;;
60068;SDS011;45945;53.350;55.922;2022-08-03T07:33:49;5.32;;;2.38;;
60068;SDS011;45945;53.350;55.922;2022-08-03T07:36:29;5.45;;;2.10;;
60068;SDS011;45945;53.350;55.922;2022-08-03T07:37:50;4.40;;;1.80;;
60068;SDS011;45945;53.350;55.922;2022-08-03T07:39:09;5.07;;;2.05;;
60068;SDS011;45945;53.350;55.922;2022-08-03T07:40:28;4.88;;;1.88;;
60068;SDS011;45945;53.350;55.922;2022-08-03T07:41:48;4.80;;;1.80;;
60068;SDS011;45945;53.350;55.922;2022-08-03T07:43:09;4.75;;;1.80;;
60068;SDS011;45945;53.350;55.922;2022-08-03T07:45:49;5.82;;;2.05;;
60068;SDS011;45945;53.350;55.922;2022-08-03T07:47:09;5.20;;;1.95;;
60068;SDS011;45945;53.350;55.922;2022-08-03T07:48:28;4.40;;;1.73;;
60068;SDS011;45945;53.350;55.922;2022-08-03T07:49:48;5.15;;;2.05;;
60068;SDS011;45945;53.350;55.922;2022-08-03T07:51:07;5.38;;;1.85;;
60068;SDS011;45945;53.350;55.922;2022-08-03T07:52:27;4.47;;;1.63;;
60068;SDS011;45945;53.350;55.922;2022-08-03T07:54:06;5.55;;;1.90;;
60068;SDS011;45945;53.350;55.922;2022-08-03T07:55:25;6.00;;;2.00;;
60068;SDS011;45945;53.350;55.922;2022-08-03T07:56:46;4.25;;;1.70;;
60068;SDS011;45945;53.350;55.922;2022-08-03T07:58:06;4.72;;;1.98;;
60068;SDS011;45945;53.350;55.922;2022-08-03T07:59:28;8.85;;;2.22;;
60068;SDS011;45945;53.350;55.922;2022-08-03T08:00:47;4.53;;;1.90;;
60068;SDS011;45945;53.350;55.922;2022-08-03T08:02:08;9.43;;;1.90;;
60068;SDS011;45945;53.350;55.922;2022-08-03T08:03:28;4.82;;;1.70;;
60068;SDS011;45945;53.350;55.922;2022-08-03T08:04:47;6.53;;;1.65;;
60068;SDS011;45945;53.350;55.922;2022-08-03T08:06:07;3.55;;;1.75;;
60068;SDS011;45945;53.350;55.922;2022-08-03T08:07:26;4.72;;;1.70;;
60068;SDS011;45945;53.350;55.922;2022-08-03T08:08:45;3.47;;;1.70;;
60068;SDS011;45945;53.350;55.922;2022-08-03T08:10:06;4.63;;;2.22;;
60068;SDS011;45945;53.350;55.922;2022-08-03T08:11:28;7.13;;;2.38;;
60068;SDS011;45945;53.350;55.922;2022-08-03T08:12:47;3.15;;;1.60;;
60068;SDS011;45945;53.350;55.922;2022-08-03T08:14:07;6.20;;;2.28;;
60068;SDS011;45945;53.350;55.922;2022-08-03T08:15:27;4.75;;;2.00;;
60068;SDS011;45945;53.350;55.922;2022-08-03T08:16:46;4.20;;;1.50;;
60068;SDS011;45945;53.350;55.922;2022-08-03T08:18:10;4.45;;;1.55;;
60068;SDS011;45945;53.350;55.922;2022-08-03T08:19:30;3.42;;;1.42;;
60068;SDS011;45945;53.350;55.922;2022-08-03T08:20:50;5.45;;;1.60;;
60068;SDS011;45945;53.350;55.922;2022-08-03T08:22:10;5.40;;;1.55;;
60068;SDS011;45945;53.350;55.922;2022-08-03T08:24:48;4.78;;;1.70;;
60068;SDS011;45945;53.350;55.922;2022-08-03T08:26:08;3.60;;;1.50;;
60068;SDS011;45945;53.350;55.922;2022-08-03T08:27:27;4.07;;;1.30;;
60068;SDS011;45945;53.350;55.922;2022-08-03T08:28:47;4.07;;;1.70;;
60068;SDS011;45945;53.350;55.922;2022-08-03T08:30:06;4.47;;;1.63;;